Map

Track Data

SID SEASON NUMBER BASIN SUBBASIN NAME ISO_TIME NATURE LAT LON WMO_WIND WMO_PRES WMO_AGENCY TRACK_TYPE DIST2LAND LANDFALL IFLAG USA_AGENCY USA_ATCF_ID USA_LAT USA_LON USA_RECORD USA_STATUS USA_WIND USA_PRES USA_SSHS USA_R34_NE USA_R34_SE USA_R34_SW USA_R34_NW USA_R50_NE USA_R50_SE USA_R50_SW USA_R50_NW USA_R64_NE USA_R64_SE USA_R64_SW USA_R64_NW USA_POCI USA_ROCI USA_RMW USA_EYE TOKYO_LAT TOKYO_LON TOKYO_GRADE TOKYO_WIND TOKYO_PRES TOKYO_R50_DIR TOKYO_R50_LONG TOKYO_R50_SHORT TOKYO_R30_DIR TOKYO_R30_LONG TOKYO_R30_SHORT TOKYO_LAND CMA_LAT CMA_LON CMA_CAT CMA_WIND CMA_PRES HKO_LAT HKO_LON HKO_CAT HKO_WIND HKO_PRES NEWDELHI_LAT NEWDELHI_LON NEWDELHI_GRADE NEWDELHI_WIND NEWDELHI_PRES NEWDELHI_CI NEWDELHI_DP NEWDELHI_POCI REUNION_LAT REUNION_LON REUNION_TYPE REUNION_WIND REUNION_PRES REUNION_TNUM REUNION_CI REUNION_RMW REUNION_R34_NE REUNION_R34_SE REUNION_R34_SW REUNION_R34_NW REUNION_R50_NE REUNION_R50_SE REUNION_R50_SW REUNION_R50_NW REUNION_R64_NE REUNION_R64_SE REUNION_R64_SW REUNION_R64_NW BOM_LAT BOM_LON BOM_TYPE BOM_WIND BOM_PRES BOM_TNUM BOM_CI BOM_RMW BOM_R34_NE BOM_R34_SE BOM_R34_SW BOM_R34_NW BOM_R50_NE BOM_R50_SE BOM_R50_SW BOM_R50_NW BOM_R64_NE BOM_R64_SE BOM_R64_SW BOM_R64_NW BOM_ROCI BOM_POCI BOM_EYE BOM_POS_METHOD BOM_PRES_METHOD NADI_LAT NADI_LON NADI_CAT NADI_WIND NADI_PRES WELLINGTON_LAT WELLINGTON_LON WELLINGTON_WIND WELLINGTON_PRES DS824_LAT DS824_LON DS824_STAGE DS824_WIND DS824_PRES TD9636_LAT TD9636_LON TD9636_STAGE TD9636_WIND TD9636_PRES TD9635_LAT TD9635_LON TD9635_WIND TD9635_PRES TD9635_ROCI NEUMANN_LAT NEUMANN_LON NEUMANN_CLASS NEUMANN_WIND NEUMANN_PRES MLC_LAT MLC_LON MLC_CLASS MLC_WIND MLC_PRES USA_GUST BOM_GUST BOM_GUST_PER REUNION_GUST REUNION_GUST_PER USA_SEAHGT USA_SEARAD_NE USA_SEARAD_SE USA_SEARAD_SW USA_SEARAD_NW STORM_SPEED STORM_DIR
1893294N18278 1893 57 NA CS NOT_NAMED 1893-10-20 12:00:00 TS 18.0000 -82.0000 30 hurdat_atl main 336 310 O_____________ hurdat_atl AL111893 18.0000 -82.0000 TD 30 -1 20 42
1893294N18278 1893 57 NA CS NOT_NAMED 1893-10-20 15:00:00 TS 18.7506 -81.2887 main 313 253 P_____________ AL111893 18.7506 -81.2887 TD 30 -1 20 41
1893294N18278 1893 57 NA CS NOT_NAMED 1893-10-20 18:00:00 TS 19.5000 -80.6000 30 hurdat_atl main 253 164 O_____________ hurdat_atl AL111893 19.5000 -80.6000 TD 30 -1 20 40
1893294N18278 1893 57 NA CS NOT_NAMED 1893-10-20 21:00:00 TS 20.2498 -79.9621 main 164 59 P_____________ AL111893 20.2498 -79.9621 TD 30 -1 19 37
1893294N18278 1893 57 NA CS NOT_NAMED 1893-10-21 00:00:00 TS 21.0000 -79.4000 30 hurdat_atl main 59 0 O_____________ hurdat_atl AL111893 21.0000 -79.4000 TD 30 -1 18 34
1893294N18278 1893 57 NA NA NOT_NAMED 1893-10-21 03:00:00 TS 21.7499 -78.8972 main 0 0 P_____________ AL111893 21.7499 -78.8972 TD 30 -1 17 29
1893294N18278 1893 57 NA NA NOT_NAMED 1893-10-21 06:00:00 TS 22.5000 -78.5000 30 hurdat_atl main 22 22 O_____________ hurdat_atl AL111893 22.5000 -78.5000 TD 30 -1 16 23
1893294N18278 1893 57 NA NA NOT_NAMED 1893-10-21 09:00:00 TS 23.2423 -78.2045 main 102 22 P_____________ AL111893 23.2423 -78.2045 TD 32 -1 16 17
1893294N18278 1893 57 NA NA NOT_NAMED 1893-10-21 12:00:00 TS 24.0000 -78.0000 35 hurdat_atl main 22 0 O_____________ hurdat_atl AL111893 24.0000 -78.0000 TS 35 0 16 13
1893294N18278 1893 57 NA NA NOT_NAMED 1893-10-21 15:00:00 TS 24.7925 -77.8052 main 10 10 P_____________ AL111893 24.7925 -77.8052 TS 37 0 16 10
1893294N18278 1893 57 NA NA NOT_NAMED 1893-10-21 18:00:00 TS 25.6000 -77.7000 40 hurdat_atl main 63 63 O_____________ hurdat_atl AL111893 25.6000 -77.7000 TS 40 0 16 3
1893294N18278 1893 57 NA NA NOT_NAMED 1893-10-21 21:00:00 TS 26.4000 -77.7268 main 148 148 P_____________ AL111893 26.4000 -77.7268 TS 42 0 16 357
1893294N18278 1893 57 NA NA NOT_NAMED 1893-10-22 00:00:00 TS 27.2000 -77.8000 45 hurdat_atl main 222 222 O_____________ hurdat_atl AL111893 27.2000 -77.8000 TS 45 0 16 357
1893294N18278 1893 57 NA NA NOT_NAMED 1893-10-22 03:00:00 TS 27.9925 -77.8223 main 252 252 P_____________ AL111893 27.9925 -77.8223 TS 47 0 16 0
1893294N18278 1893 57 NA NA NOT_NAMED 1893-10-22 06:00:00 TS 28.8000 -77.8000 50 hurdat_atl main 265 265 O_____________ hurdat_atl AL111893 28.8000 -77.8000 TS 50 0 17 3
1893294N18278 1893 57 NA NA NOT_NAMED 1893-10-22 09:00:00 TS 29.6349 -77.7371 main 298 298 P_____________ AL111893 29.6349 -77.7371 TS 50 0 17 6
1893294N18278 1893 57 NA NA NOT_NAMED 1893-10-22 12:00:00 TS 30.5000 -77.6000 50 hurdat_atl main 326 266 O_____________ hurdat_atl AL111893 30.5000 -77.6000 TS 50 0 18 9
1893294N18278 1893 57 NA NA NOT_NAMED 1893-10-22 15:00:00 TS 31.3847 -77.4162 main 259 207 P_____________ AL111893 31.3847 -77.4162 TS 50 0 19 13
1893294N18278 1893 57 NA NA NOT_NAMED 1893-10-22 18:00:00 TS 32.3000 -77.1000 50 hurdat_atl main 197 149 O_____________ hurdat_atl AL111893 32.3000 -77.1000 TS 50 0 20 21
1893294N18278 1893 57 NA NA NOT_NAMED 1893-10-22 21:00:00 TS 33.2334 -76.5612 main 151 76 P_____________ AL111893 33.2334 -76.5612 TS 50 0 21 26
1893294N18278 1893 57 NA NA NOT_NAMED 1893-10-23 00:00:00 TS 34.2000 -76.0000 50 hurdat_atl main 72 46 O_____________ hurdat_atl AL111893 34.2000 -76.0000 TS 50 0 21 22
1893294N18278 1893 57 NA NA NOT_NAMED 1893-10-23 03:00:00 TS 35.2000 -75.6000 50 hurdat_atl main 45 17 O_____________ hurdat_atl AL111893 35.2000 -75.6000 L TS 50 0 22 19
1893294N18278 1893 57 NA NA NOT_NAMED 1893-10-23 06:00:00 TS 36.3000 -75.1000 45 hurdat_atl main 54 45 O_____________ hurdat_atl AL111893 36.3000 -75.1000 TS 45 0 23 9
1893294N18278 1893 57 NA NA NOT_NAMED 1893-10-23 09:00:00 TS 37.4217 -75.1815 main 45 0 P_____________ AL111893 37.4217 -75.1815 TS 45 0 22 348
1893294N18278 1893 57 NA NA NOT_NAMED 1893-10-23 11:00:00 TS 38.1000 -75.6000 45 hurdat_atl main 0 0 O_____________ hurdat_atl AL111893 38.1000 -75.6000 L TS 45 0 23 330
1893294N18278 1893 57 NA NA NOT_NAMED 1893-10-23 12:00:00 TS 38.4000 -75.9000 40 hurdat_atl main 0 0 O_____________ hurdat_atl AL111893 38.4000 -75.9000 TS 40 0 23 318
1893294N18278 1893 57 NA NA NOT_NAMED 1893-10-23 15:00:00 TS 39.2290 -76.9143 main 0 0 P_____________ AL111893 39.2290 -76.9143 TS 37 0 23 315
1893294N18278 1893 57 NA NA NOT_NAMED 1893-10-23 18:00:00 TS 40.0000 -78.0000 35 hurdat_atl main 0 O_____________ hurdat_atl AL111893 40.0000 -78.0000 TS 35 0 23 313

About IBTrACS Database

This database is a web-friendly format of International Best Track Archive for Climate Stewardship (IBTrACS), a global best track data archive curated by NOAA dating back to 1842.

Updated: 2021-12-01